Terminal Aerodrome Forecast
Issued by NWS

Home | Current Version | Previous Version | Text Only | Print | Product List | Glossary On
Versions: 1 2 3 4 5 6 7 8 9 10 11 12 13 14 15 16 17 18 19 20 21 22
000
FTUS43 KLSX 181100 RRA
TAFUIN
TAF
KUIN 181141Z 1812/1912 08004KT 4SM BR SCT050
      TEMPO 1812/1813 1 1/2SM BR SCT003
     FM181400 11006KT P6SM SCT012 SCT050
     FM181800 11008KT P6SM SCT040
     FM190000 10006KT P6SM SKC=

USA.gov is the U.S. government's official web portal to all federal, state and local government web resources and services.